aviador You're here:

WMKD Decoded Metar

KUANTAN in MALAYSIA
Report Time2017-08-18 16:00:00
UTC Time2017-08-18 16:29:55
Flight Rules vfr VFR
WindVRB at 02 kt
Visibility9999 m
Phenomena:N/A
Clouds:Few 024 Hf
Scattered 160 Hf
Broken 280 Hf
Expected CloudBase > 400 ft AGL from Temp-Dew spread
Ceiling28,000 ft
Temp26°C (ISA +11)
Dew Point25°C (94% RH)
QNH1011 hPa
Density Alt1,818 ft
Elevation52 ft
Report Wrong Elevation
Raw Report
METAR WMKD 181600Z VRB02KT 9999 FEW024 SCT160 BKN280 26/25 Q1011
NOSIG=

Extra information for WMKD:More info

Metar Taf Metar & Taf Last 4 Metars F.Rules Stats Wind Profile Meteogram Temp Stats Airport Information Weather charts Add Link Nearby VenuesMetar ALERT Operation Metar Decoded Social comments